createdAt,value
2023-05-24T00:00:22.475Z,9.00
2023-05-24T00:02:49.960Z,5.57
2023-05-24T00:05:19.152Z,5.15
2023-05-24T00:07:46.310Z,8.23
2023-05-24T00:10:13.729Z,7.22
2023-05-24T00:12:40.987Z,6.85
2023-05-24T00:15:09.259Z,5.90
2023-05-24T00:17:41.711Z,4.78
2023-05-24T00:20:14.600Z,4.88
2023-05-24T00:22:42.664Z,5.22
2023-05-24T00:25:10.105Z,5.32
2023-05-24T00:27:37.860Z,4.88
2023-05-24T00:30:06.821Z,4.70
2023-05-24T00:32:34.470Z,6.85
2023-05-24T00:35:01.772Z,5.90
2023-05-24T00:37:29.788Z,5.40
2023-05-24T00:39:57.241Z,5.65
2023-05-24T00:42:24.653Z,7.22
2023-05-24T00:44:53.538Z,5.00
2023-05-24T00:47:21.051Z,6.80
2023-05-24T00:49:48.309Z,6.35
2023-05-24T00:52:15.836Z,5.70
2023-05-24T00:54:44.417Z,5.70
2023-05-24T00:57:14.263Z,5.55
2023-05-24T00:59:41.769Z,6.93
2023-05-24T01:02:09.010Z,5.15
2023-05-24T01:04:38.188Z,5.78
2023-05-24T01:07:30.269Z,5.88
2023-05-24T01:10:25.672Z,4.88
2023-05-24T01:13:14.061Z,6.03
2023-05-24T01:16:11.493Z,6.20
2023-05-24T01:19:02.487Z,6.35
2023-05-24T01:22:00.106Z,7.15
2023-05-24T01:24:42.611Z,6.95
2023-05-24T01:27:13.486Z,7.15
2023-05-24T01:29:41.881Z,7.35
2023-05-24T01:32:10.180Z,6.50
2023-05-24T01:34:37.430Z,7.57
2023-05-24T01:37:04.557Z,7.30
2023-05-24T01:39:31.945Z,8.20
2023-05-24T01:42:06.595Z,6.53
2023-05-24T01:44:59.280Z,6.20
2023-05-24T01:47:49.139Z,4.68
2023-05-24T01:50:58.871Z,6.05
2023-05-24T01:53:33.157Z,6.90
2023-05-24T01:56:03.615Z,5.70
2023-05-24T01:58:31.716Z,6.95
2023-05-24T02:00:59.968Z,6.18
2023-05-24T02:03:27.416Z,5.78
2023-05-24T02:05:54.547Z,5.25
2023-05-24T02:08:22.293Z,5.55
2023-05-24T02:10:49.478Z,4.68
2023-05-24T02:13:18.353Z,4.75
2023-05-24T02:15:46.021Z,4.35
2023-05-24T02:18:13.309Z,6.93
2023-05-24T02:20:41.196Z,5.32
2023-05-24T02:23:08.616Z,4.90
2023-05-24T02:25:36.135Z,8.68
2023-05-24T02:28:03.574Z,4.85
2023-05-24T02:30:30.916Z,7.47
2023-05-24T02:32:58.510Z,4.97
2023-05-24T02:35:26.179Z,6.22
2023-05-24T02:37:53.216Z,8.30
2023-05-24T02:40:20.644Z,5.88
2023-05-24T02:42:47.823Z,5.38
2023-05-24T02:45:14.999Z,5.57
2023-05-24T02:47:42.289Z,5.45
2023-05-24T02:50:10.274Z,7.50
2023-05-24T02:52:37.765Z,6.45
2023-05-24T02:55:08.959Z,5.53
2023-05-24T02:57:38.119Z,7.47
2023-05-24T03:00:11.190Z,6.22
2023-05-24T03:02:44.052Z,5.45
2023-05-24T03:05:11.831Z,5.70
2023-05-24T03:07:39.207Z,6.18
2023-05-24T03:10:07.159Z,6.00
2023-05-24T03:12:34.757Z,8.00
2023-05-24T03:15:02.221Z,7.10
2023-05-24T03:17:29.655Z,5.72
2023-05-24T03:19:56.924Z,5.22
2023-05-24T03:22:24.128Z,5.78
2023-05-24T03:24:51.737Z,6.65
2023-05-24T03:27:19.234Z,7.55
2023-05-24T03:29:46.493Z,5.95
2023-05-24T03:32:13.802Z,6.45
2023-05-24T03:34:41.324Z,7.40
2023-05-24T03:37:08.801Z,5.90
2023-05-24T03:39:36.023Z,7.45
2023-05-24T03:42:03.500Z,9.27
2023-05-24T03:44:30.897Z,6.57
2023-05-24T03:46:58.096Z,5.97
2023-05-24T03:49:25.307Z,6.60
2023-05-24T03:51:52.664Z,5.78
2023-05-24T03:54:19.994Z,5.82
2023-05-24T03:56:47.301Z,5.88
2023-05-24T03:59:14.510Z,8.07
2023-05-24T04:01:41.699Z,7.25
2023-05-24T04:04:09.053Z,6.20
2023-05-24T04:06:37.207Z,7.28
2023-05-24T04:09:06.132Z,7.90
2023-05-24T04:11:33.481Z,6.43
2023-05-24T04:14:00.888Z,5.25
2023-05-24T04:16:28.778Z,7.45
2023-05-24T04:18:56.827Z,5.18
2023-05-24T04:21:24.515Z,5.97
2023-05-24T04:23:51.773Z,6.40
2023-05-24T04:26:21.572Z,6.45
2023-05-24T04:28:48.830Z,6.50
2023-05-24T04:31:16.883Z,5.55
2023-05-24T04:33:44.093Z,6.10
2023-05-24T04:36:12.516Z,7.40
2023-05-24T04:38:41.174Z,5.53
2023-05-24T04:41:08.428Z,5.78
2023-05-24T04:43:35.737Z,9.07
2023-05-24T04:46:03.118Z,6.97
2023-05-24T04:48:30.402Z,5.68
2023-05-24T04:50:58.769Z,7.70
2023-05-24T04:53:26.178Z,6.50
2023-05-24T04:55:54.088Z,9.52
2023-05-24T04:58:21.290Z,5.70
2023-05-24T05:00:48.536Z,5.32
2023-05-24T05:03:16.234Z,5.88
2023-05-24T05:05:44.713Z,7.05
2023-05-24T05:08:11.948Z,6.13
2023-05-24T05:10:39.107Z,6.53
2023-05-24T05:13:06.253Z,7.10
2023-05-24T05:15:33.636Z,6.43
2023-05-24T05:18:01.126Z,6.85
2023-05-24T05:20:28.481Z,8.80
2023-05-24T05:22:55.831Z,5.32
2023-05-24T05:25:23.185Z,6.78
2023-05-24T05:27:50.364Z,6.00
2023-05-24T05:30:17.779Z,6.57
2023-05-24T05:32:45.338Z,8.27
2023-05-24T05:35:12.626Z,6.93
2023-05-24T05:37:39.851Z,6.05
2023-05-24T05:40:07.700Z,10.98
2023-05-24T05:42:34.809Z,6.50
2023-05-24T05:45:01.946Z,7.57
2023-05-24T05:47:29.188Z,6.85
2023-05-24T05:49:56.407Z,6.32
2023-05-24T05:52:23.717Z,6.70
2023-05-24T05:54:51.335Z,6.53
2023-05-24T05:57:24.458Z,6.35
2023-05-24T05:59:52.182Z,7.30
2023-05-24T06:02:19.877Z,7.15
2023-05-24T06:04:47.690Z,6.35
2023-05-24T06:07:14.992Z,5.88
2023-05-24T06:09:42.886Z,6.63
2023-05-24T06:12:10.238Z,6.30
2023-05-24T06:14:38.713Z,7.22
2023-05-24T06:17:06.446Z,6.20
2023-05-24T06:19:33.705Z,6.75
2023-05-24T06:22:01.569Z,6.20
2023-05-24T06:24:28.985Z,8.40
2023-05-24T06:26:56.215Z,7.63
2023-05-24T06:29:25.481Z,7.10
2023-05-24T06:31:53.012Z,5.93
2023-05-24T06:34:23.379Z,6.07
2023-05-24T06:36:51.850Z,8.00
2023-05-24T06:39:19.483Z,7.82
2023-05-24T06:41:47.468Z,5.93
2023-05-24T06:44:14.873Z,9.40
2023-05-24T06:46:42.794Z,8.55
2023-05-24T06:49:10.007Z,6.55
2023-05-24T06:51:38.360Z,7.47
2023-05-24T06:54:05.982Z,8.52
2023-05-24T06:56:33.418Z,7.18
2023-05-24T06:59:00.975Z,8.27
2023-05-24T07:01:29.559Z,8.15
2023-05-24T07:03:57.247Z,7.47
2023-05-24T07:06:25.327Z,8.63
2023-05-24T07:08:52.508Z,7.68
2023-05-24T07:11:19.739Z,7.22
2023-05-24T07:13:46.987Z,9.75
2023-05-24T07:16:14.170Z,9.48
2023-05-24T07:18:42.040Z,10.85
2023-05-24T07:21:09.416Z,8.45
2023-05-24T07:23:37.470Z,9.65
2023-05-24T07:26:05.477Z,6.78
2023-05-24T07:28:32.927Z,12.23
2023-05-24T07:31:00.234Z,7.05
2023-05-24T07:33:27.638Z,8.65
2023-05-24T07:35:54.911Z,8.85
2023-05-24T07:38:22.182Z,8.07
2023-05-24T07:40:49.319Z,9.15
2023-05-24T07:43:16.477Z,8.18
2023-05-24T07:45:43.954Z,8.45
2023-05-24T07:48:11.725Z,8.68
2023-05-24T07:50:39.244Z,8.52
2023-05-24T07:53:07.510Z,8.77
2023-05-24T07:55:34.768Z,9.02
2023-05-24T07:58:01.950Z,8.52
2023-05-24T08:00:30.177Z,9.18
2023-05-24T08:02:57.685Z,10.75
2023-05-24T08:05:24.991Z,8.88
2023-05-24T08:07:53.680Z,8.07
2023-05-24T08:10:21.067Z,9.27
2023-05-24T08:12:50.317Z,8.38
2023-05-24T08:15:17.521Z,7.68
2023-05-24T08:17:44.950Z,7.97
2023-05-24T08:20:17.143Z,9.40
2023-05-24T08:22:44.766Z,7.00
2023-05-24T08:25:12.164Z,7.68
2023-05-24T08:27:39.433Z,7.90
2023-05-24T08:30:08.570Z,7.50
2023-05-24T08:32:36.682Z,7.82
2023-05-24T08:35:19.242Z,6.65
2023-05-24T08:37:48.295Z,7.70
2023-05-24T08:40:15.611Z,7.90
2023-05-24T08:42:43.188Z,8.52
2023-05-24T08:45:15.414Z,7.45
2023-05-24T08:47:43.064Z,8.70
2023-05-24T08:50:12.979Z,10.25
2023-05-24T08:52:42.411Z,7.72
2023-05-24T08:55:11.232Z,8.13
2023-05-24T08:57:41.603Z,8.32
2023-05-24T09:00:13.099Z,8.65
2023-05-24T09:02:43.063Z,7.70
2023-05-24T09:05:17.240Z,11.25
2023-05-24T09:07:46.236Z,9.50
2023-05-24T09:10:13.643Z,7.93
2023-05-24T09:12:45.834Z,8.38
2023-05-24T09:15:13.090Z,8.52
2023-05-24T09:17:40.989Z,8.65
2023-05-24T09:20:11.395Z,8.85
2023-05-24T09:22:42.087Z,8.35
2023-05-24T09:25:11.604Z,8.38
2023-05-24T09:27:39.472Z,6.50
2023-05-24T09:30:13.099Z,11.02
2023-05-24T09:32:41.491Z,7.03
2023-05-24T09:35:10.787Z,8.00
2023-05-24T09:37:44.646Z,6.43
2023-05-24T09:40:22.999Z,8.30
2023-05-24T09:43:02.448Z,6.38
2023-05-24T09:45:29.568Z,6.97
2023-05-24T09:47:56.981Z,8.93
2023-05-24T09:50:24.116Z,6.72
2023-05-24T09:52:52.126Z,7.18
2023-05-24T09:55:20.794Z,6.68
2023-05-24T09:57:55.533Z,6.80
2023-05-24T10:00:24.413Z,10.80
2023-05-24T10:03:07.050Z,5.50
2023-05-24T10:05:35.514Z,5.40
2023-05-24T10:08:05.320Z,6.03
2023-05-24T10:10:33.990Z,5.25
2023-05-24T10:13:02.830Z,4.88
2023-05-24T10:15:30.970Z,6.30
2023-05-24T10:18:00.413Z,8.15
2023-05-24T10:20:28.701Z,5.85
2023-05-24T10:23:02.201Z,6.70
2023-05-24T10:25:31.140Z,6.85
2023-05-24T10:28:01.813Z,5.75
2023-05-24T10:30:34.540Z,6.50
2023-05-24T10:33:05.318Z,5.97
2023-05-24T10:35:34.185Z,5.95
2023-05-24T10:38:09.352Z,5.72
2023-05-24T10:40:44.491Z,5.22
2023-05-24T10:43:12.068Z,4.40
2023-05-24T10:45:42.446Z,6.75
2023-05-24T10:48:29.530Z,4.90
2023-05-24T10:50:57.677Z,5.57
2023-05-24T10:53:27.897Z,5.15
2023-05-24T10:55:57.966Z,5.50
2023-05-24T10:58:48.658Z,5.28
2023-05-24T11:01:36.520Z,4.32
2023-05-24T11:04:12.295Z,4.80
2023-05-24T11:06:46.077Z,4.97
2023-05-24T11:09:13.325Z,5.20
2023-05-24T11:11:45.365Z,3.95
2023-05-24T11:14:13.963Z,4.35
2023-05-24T11:16:41.758Z,4.93
2023-05-24T11:19:34.536Z,4.10
2023-05-24T11:22:05.065Z,3.65
2023-05-24T11:24:33.869Z,4.40
2023-05-24T11:27:02.840Z,5.00
2023-05-24T11:29:30.716Z,6.30
2023-05-24T11:32:08.312Z,4.13
2023-05-24T11:34:35.773Z,4.43
2023-05-24T11:37:06.903Z,6.80
2023-05-24T11:39:38.514Z,5.07
2023-05-24T11:42:06.867Z,4.38
2023-05-24T11:44:35.594Z,4.05
2023-05-24T11:47:03.700Z,5.95
2023-05-24T11:49:31.398Z,5.20
2023-05-24T11:51:59.681Z,3.83
2023-05-24T11:54:32.989Z,3.80
2023-05-24T11:57:00.603Z,6.07
2023-05-24T11:59:29.562Z,4.65
2023-05-24T12:02:06.005Z,3.40
2023-05-24T12:04:34.785Z,3.13
2023-05-24T12:07:02.438Z,3.53
2023-05-24T12:09:29.867Z,3.83
2023-05-24T12:11:58.922Z,3.65
2023-05-24T12:14:33.597Z,4.78
2023-05-24T12:17:01.511Z,5.67
2023-05-24T12:19:36.982Z,2.90
2023-05-24T12:22:06.828Z,3.72
2023-05-24T12:24:34.859Z,3.15
2023-05-24T12:27:07.114Z,3.35
2023-05-24T12:29:42.678Z,3.28
2023-05-24T12:32:14.364Z,4.20
2023-05-24T12:34:43.902Z,3.05
2023-05-24T12:37:15.481Z,4.45
2023-05-24T12:39:44.187Z,4.07
2023-05-24T12:42:15.117Z,3.33
2023-05-24T12:44:42.704Z,3.67
2023-05-24T12:47:10.401Z,5.82
2023-05-24T12:49:37.794Z,3.72
2023-05-24T12:52:05.344Z,2.65
2023-05-24T12:54:32.811Z,3.13
2023-05-24T12:57:00.596Z,2.97
2023-05-24T12:59:29.150Z,4.60
2023-05-24T13:01:56.974Z,5.00
2023-05-24T13:04:27.850Z,3.00
2023-05-24T13:06:55.804Z,3.85
2023-05-24T13:09:23.878Z,4.18
2023-05-24T13:11:52.822Z,4.03
2023-05-24T13:14:20.581Z,3.90
2023-05-24T13:16:48.567Z,3.65
2023-05-24T13:19:16.996Z,6.35
2023-05-24T13:21:44.291Z,4.03
2023-05-24T13:24:12.668Z,4.13
2023-05-24T13:26:39.749Z,4.55
2023-05-24T13:31:41.340Z,3.53
2023-05-24T13:34:10.617Z,4.35
2023-05-24T13:36:38.396Z,4.15
2023-05-24T13:39:15.533Z,3.45
2023-05-24T13:41:44.365Z,3.88
2023-05-24T13:44:13.451Z,3.17
2023-05-24T13:46:41.453Z,3.45
2023-05-24T13:49:09.675Z,3.20
2023-05-24T13:51:40.914Z,2.35
2023-05-24T13:54:08.452Z,2.88
2023-05-24T13:56:36.846Z,3.22
2023-05-24T13:59:04.966Z,3.28
2023-05-24T14:01:33.314Z,3.08
2023-05-24T14:04:02.968Z,4.00
2023-05-24T14:06:30.934Z,6.18
2023-05-24T14:08:58.768Z,2.72
2023-05-24T14:11:26.620Z,2.38
2023-05-24T14:16:24.737Z,2.67
2023-05-24T14:18:51.959Z,3.53
2023-05-24T14:21:19.908Z,2.92
2023-05-24T14:23:47.450Z,3.10
2023-05-24T14:26:14.586Z,3.15
2023-05-24T14:28:41.989Z,2.92
2023-05-24T14:31:09.191Z,2.70
2023-05-24T14:33:36.486Z,3.17
2023-05-24T14:36:03.705Z,3.00
2023-05-24T14:38:30.932Z,2.20
2023-05-24T14:40:58.980Z,2.13
2023-05-24T14:43:27.129Z,2.33
2023-05-24T14:45:54.490Z,3.20
2023-05-24T14:48:21.709Z,2.20
2023-05-24T14:50:49.121Z,2.28
2023-05-24T14:53:16.599Z,2.90
2023-05-24T14:55:44.509Z,2.22
2023-05-24T14:58:12.353Z,2.75
2023-05-24T15:00:41.245Z,2.60
2023-05-24T15:03:13.161Z,2.90
2023-05-24T15:05:41.793Z,2.10
2023-05-24T15:08:11.161Z,2.25
2023-05-24T15:10:44.019Z,3.15
2023-05-24T15:13:11.610Z,2.70
2023-05-24T15:15:38.938Z,2.05
2023-05-24T15:18:07.086Z,2.42
2023-05-24T15:20:35.652Z,2.90
2023-05-24T15:23:04.187Z,2.63
2023-05-24T15:25:31.352Z,3.97
2023-05-24T15:27:58.569Z,2.25
2023-05-24T15:30:25.792Z,3.40
2023-05-24T15:32:52.948Z,2.72
2023-05-24T15:35:20.244Z,1.85
2023-05-24T15:37:47.412Z,2.53
2023-05-24T15:40:15.371Z,2.75
2023-05-24T15:42:42.621Z,2.05
2023-05-24T15:45:10.433Z,2.38
2023-05-24T15:47:40.260Z,2.90
2023-05-24T15:50:09.117Z,2.97
2023-05-24T15:52:36.563Z,2.83
2023-05-24T15:55:04.133Z,2.38
2023-05-24T15:57:32.028Z,2.67
2023-05-24T15:59:59.414Z,3.20
2023-05-24T16:02:26.678Z,2.47
2023-05-24T16:04:54.478Z,2.83
2023-05-24T16:07:21.628Z,2.75
2023-05-24T16:09:51.173Z,2.20
2023-05-24T16:12:18.969Z,2.67
2023-05-24T16:14:46.724Z,2.58
2023-05-24T16:17:15.229Z,3.08
2023-05-24T16:19:42.689Z,3.10
2023-05-24T16:22:10.027Z,2.42
2023-05-24T16:24:37.353Z,3.20
2023-05-24T16:27:04.911Z,2.70
2023-05-24T16:29:32.409Z,3.08
2023-05-24T16:31:59.658Z,2.38
2023-05-24T16:34:27.263Z,2.17
2023-05-24T16:36:54.756Z,3.13
2023-05-24T16:39:24.069Z,2.92
2023-05-24T16:41:52.163Z,3.15
2023-05-24T16:44:19.466Z,3.58
2023-05-24T16:46:47.314Z,2.17
2023-05-24T16:49:14.503Z,3.22
2023-05-24T16:51:44.030Z,3.88
2023-05-24T16:54:12.438Z,2.55
2023-05-24T16:56:39.653Z,2.78
2023-05-24T16:59:07.221Z,2.88
2023-05-24T17:01:34.588Z,2.50
2023-05-24T17:04:01.874Z,2.63
2023-05-24T17:06:29.339Z,3.13
2023-05-24T17:08:56.430Z,3.78
2023-05-24T17:11:23.737Z,2.92
2023-05-24T17:13:52.541Z,5.90
2023-05-24T17:16:19.776Z,3.33
2023-05-24T17:18:47.079Z,2.95
2023-05-24T17:21:14.390Z,3.08
2023-05-24T17:23:41.879Z,3.75
2023-05-24T17:26:14.937Z,3.10
2023-05-24T17:28:44.929Z,3.33
2023-05-24T17:31:15.827Z,3.85
2023-05-24T17:33:43.141Z,2.72
2023-05-24T17:36:10.706Z,3.05
2023-05-24T17:38:38.299Z,2.80
2023-05-24T17:41:09.327Z,3.92
2023-05-24T17:43:39.241Z,2.47
2023-05-24T17:46:07.250Z,2.90
2023-05-24T17:51:06.626Z,3.47
2023-05-24T17:53:35.635Z,3.42
2023-05-24T17:56:04.227Z,2.90
2023-05-24T17:58:36.717Z,4.00
2023-05-24T18:01:05.821Z,2.47
2023-05-24T18:03:38.147Z,3.50
2023-05-24T18:06:19.296Z,3.42
2023-05-24T18:09:05.504Z,3.72
2023-05-24T18:11:33.359Z,4.68
2023-05-24T18:14:00.900Z,4.22
2023-05-24T18:16:28.210Z,4.22
2023-05-24T18:18:55.599Z,3.75
2023-05-24T18:21:22.823Z,3.25
2023-05-24T18:23:50.170Z,3.53
2023-05-24T18:26:17.425Z,3.38
2023-05-24T18:28:44.582Z,3.50
2023-05-24T18:31:11.913Z,4.10
2023-05-24T18:33:39.385Z,4.28
2023-05-24T18:36:07.111Z,3.78
2023-05-24T18:38:35.390Z,5.05
2023-05-24T18:41:06.091Z,5.65
2023-05-24T18:43:34.098Z,3.75
2023-05-24T18:46:01.995Z,4.97
2023-05-24T18:48:29.289Z,5.00
2023-05-24T18:50:56.709Z,7.50
2023-05-24T18:53:24.045Z,5.45
2023-05-24T18:55:51.177Z,5.55
2023-05-24T18:58:18.461Z,6.40
2023-05-24T19:00:46.113Z,4.63
2023-05-24T19:03:13.553Z,6.40
2023-05-24T19:05:43.565Z,6.00
2023-05-24T19:08:11.542Z,5.75
2023-05-24T19:10:38.908Z,4.60
2023-05-24T19:13:07.383Z,5.85
2023-05-24T19:15:37.546Z,5.40
2023-05-24T19:18:05.595Z,4.30
2023-05-24T19:20:32.945Z,5.90
2023-05-24T19:23:00.195Z,5.47
2023-05-24T19:25:27.475Z,5.88
2023-05-24T19:27:59.869Z,5.68
2023-05-24T19:30:28.097Z,5.22
2023-05-24T19:32:55.714Z,5.38
2023-05-24T19:35:23.239Z,6.40
2023-05-24T19:37:50.976Z,6.20
2023-05-24T19:40:18.486Z,4.85
2023-05-24T19:42:45.961Z,6.28
2023-05-24T19:45:13.897Z,5.47
2023-05-24T19:47:41.241Z,5.20
2023-05-24T19:50:09.027Z,6.80
2023-05-24T19:52:36.482Z,5.80
2023-05-24T19:55:04.148Z,7.13
2023-05-24T19:57:31.570Z,6.32
2023-05-24T19:59:59.163Z,7.28
2023-05-24T20:02:26.597Z,6.53
2023-05-24T20:04:54.056Z,7.20
2023-05-24T20:07:21.438Z,6.00
2023-05-24T20:09:50.109Z,5.85
2023-05-24T20:12:17.503Z,6.75
2023-05-24T20:14:44.832Z,6.65
2023-05-24T20:17:12.241Z,6.65
2023-05-24T20:19:39.591Z,5.07
2023-05-24T20:22:08.312Z,5.90
2023-05-24T20:24:35.691Z,7.03
2023-05-24T20:27:02.974Z,7.47
2023-05-24T20:29:30.379Z,7.15
2023-05-24T20:31:57.816Z,8.63
2023-05-24T20:34:25.249Z,7.80
2023-05-24T20:36:52.533Z,7.15
2023-05-24T20:39:19.837Z,6.25
2023-05-24T20:41:47.121Z,6.47
2023-05-24T20:44:14.977Z,6.70
2023-05-24T20:46:42.357Z,7.45
2023-05-24T20:49:09.687Z,6.47
2023-05-24T20:51:37.384Z,6.00
2023-05-24T20:54:06.444Z,6.28
2023-05-24T20:56:33.779Z,6.97
2023-05-24T20:59:02.438Z,5.53
2023-05-24T21:01:29.788Z,5.97
2023-05-24T21:04:22.596Z,7.30
2023-05-24T21:06:45.044Z,6.13
2023-05-24T21:09:12.505Z,6.50
2023-05-24T21:11:39.786Z,5.93
2023-05-24T21:14:11.024Z,7.50
2023-05-24T21:16:38.455Z,7.10
2023-05-24T21:19:05.658Z,7.20
2023-05-24T21:21:33.014Z,6.60
2023-05-24T21:24:00.242Z,7.93
2023-05-24T21:26:27.532Z,6.20
2023-05-24T21:28:54.940Z,6.38
2023-05-24T21:31:23.145Z,6.80
2023-05-24T21:33:50.594Z,5.95
2023-05-24T21:36:18.766Z,6.55
2023-05-24T21:38:46.214Z,6.00
2023-05-24T21:41:13.800Z,6.60
2023-05-24T21:43:42.974Z,6.05
2023-05-24T21:46:10.394Z,6.22
2023-05-24T21:48:37.650Z,6.45
2023-05-24T21:51:07.630Z,7.05
2023-05-24T21:53:35.498Z,6.10
2023-05-24T21:56:03.227Z,6.47
2023-05-24T21:58:30.501Z,6.35
2023-05-24T22:00:57.756Z,6.30
2023-05-24T22:03:25.110Z,7.07
2023-05-24T22:05:52.302Z,6.78
2023-05-24T22:08:19.830Z,6.20
2023-05-24T22:10:47.094Z,7.53
2023-05-24T22:13:14.570Z,6.40
2023-05-24T22:15:42.007Z,6.93
2023-05-24T22:18:09.345Z,6.43
2023-05-24T22:20:37.024Z,8.45
2023-05-24T22:23:04.587Z,7.70
2023-05-24T22:25:31.803Z,7.28
2023-05-24T22:27:58.972Z,7.00
2023-05-24T22:30:27.085Z,7.63
2023-05-24T22:32:54.300Z,7.07
2023-05-24T22:35:21.599Z,7.50
2023-05-24T22:37:48.817Z,8.50
2023-05-24T22:40:16.166Z,7.78
2023-05-24T22:42:43.482Z,7.70
2023-05-24T22:45:11.252Z,7.95
2023-05-24T22:47:40.181Z,7.72
2023-05-24T22:50:08.473Z,9.38
2023-05-24T22:52:36.776Z,7.15
2023-05-24T22:55:04.070Z,7.38
2023-05-24T22:57:31.668Z,8.00
2023-05-24T22:59:59.155Z,7.32
2023-05-24T23:02:30.012Z,8.10
2023-05-24T23:04:57.553Z,7.88
2023-05-24T23:07:25.439Z,8.93
2023-05-24T23:09:52.961Z,8.88
2023-05-24T23:12:21.284Z,8.82
2023-05-24T23:14:48.806Z,8.82
2023-05-24T23:17:17.421Z,8.50
2023-05-24T23:19:44.900Z,8.75
2023-05-24T23:22:13.203Z,7.88
2023-05-24T23:24:42.777Z,10.30
2023-05-24T23:27:10.214Z,8.15
2023-05-24T23:29:39.322Z,8.63
2023-05-24T23:32:08.444Z,9.68
2023-05-24T23:34:36.527Z,11.07
2023-05-24T23:37:05.440Z,10.27
2023-05-24T23:39:32.843Z,11.68
2023-05-24T23:42:00.121Z,11.50
2023-05-24T23:44:27.257Z,10.10
2023-05-24T23:46:54.852Z,10.32
2023-05-24T23:49:22.351Z,9.13
2023-05-24T23:51:49.577Z,10.95
2023-05-24T23:54:16.827Z,9.40
2023-05-24T23:56:44.040Z,10.38
2023-05-24T23:59:11.446Z,10.57
